Terminal Aerodrome Forecast
Issued by NWS

Home | Current Version | Previous Version | Text Only | Print | Product List | Glossary On
Versions: 1 2 3 4 5 6 7 8 9 10 11 12 13 14 15
340
FTUS46 KSEW 270520
TAFBLI
TAF
KBLI 270520Z 2706/2806 19012KT P6SM SCT120 SCT200
     FM271100 18008KT P6SM SCT018
      TEMPO 2711/2713 BKN018
     FM271300 18008KT P6SM OVC018
      TEMPO 2718/2720 SCT020
     FM272000 24007KT P6SM SCT040 SCT200
     FM280000 24007KT P6SM SCT200=

USA.gov is the U.S. government's official web portal to all federal, state and local government web resources and services.